JBR Airport (Jonesboro Muni) Information

FAA: JBR - ICAO: KJBR

JBR Airport Location

State Arkansas
County Craighead
City Jonesboro
JBR Airport is 3 miles east of Jonesboro, AR.
Latitude 35-49-54.1600N
Longitude 090-38-47.1190W
Elevation 262ft

KJBR Airport METARs

METAR KJBR 301853Z AUTO 10004KT 10SM CLR 18/06 A3012 RMK AO2 SLP198 T01830056 $
Altimeter 30.12"
Temperature 18.3°C (64.9°F)
Wind 100° at 4KT
Clouds Skies are clear.
Visibility 10.0mi
Time observed: 2021-11-30T18:53:00Z

JBR Airport Details

Status Operational
Activation April 1940
Ownership Public
Usage Public
Chart MEMPHIS
ATC on-site No
Beacon schedule sunset-sunrise
Beacon color clear green

JBR Airport Contacts

Owner CITY OF JONESBORO
Owner address PO BOX 1845, JONESBORO, AR 72403
Owner phone 870-932-1052
Manager CHIEF OF AFLD MANAGEMENT
Manager address LITTLE ROCK AFB, JACKSONVILLE, AR 72076
Manager phone 501-987-3103

JBR Airport (Jonesboro Muni) Radio Frequencies

JBR (Airport) Radio Frequencies

UNICOM 123
Common traffic advisory frequency (CTAF) 123